sensor_id;sensor_type;location;lat;lon;timestamp;P1;durP1;ratioP1;P2;durP2;ratioP2
13704;SDS011;6924;52.122;9.952;2022-07-29T00:02:18;3.30;;;1.30;;
13704;SDS011;6924;52.122;9.952;2022-07-29T00:04:44;1.63;;;0.80;;
13704;SDS011;6924;52.122;9.952;2022-07-29T00:07:12;3.03;;;0.73;;
13704;SDS011;6924;52.122;9.952;2022-07-29T00:09:38;1.07;;;0.70;;
13704;SDS011;6924;52.122;9.952;2022-07-29T00:12:05;1.57;;;1.00;;
13704;SDS011;6924;52.122;9.952;2022-07-29T00:14:32;2.63;;;0.80;;
13704;SDS011;6924;52.122;9.952;2022-07-29T00:16:58;1.67;;;0.83;;
13704;SDS011;6924;52.122;9.952;2022-07-29T00:19:24;0.90;;;0.70;;
13704;SDS011;6924;52.122;9.952;2022-07-29T00:21:51;1.33;;;0.60;;
13704;SDS011;6924;52.122;9.952;2022-07-29T00:24:19;1.23;;;0.60;;
13704;SDS011;6924;52.122;9.952;2022-07-29T00:26:45;4.97;;;0.90;;
13704;SDS011;6924;52.122;9.952;2022-07-29T00:29:11;0.90;;;0.80;;
13704;SDS011;6924;52.122;9.952;2022-07-29T00:31:38;4.60;;;0.70;;
13704;SDS011;6924;52.122;9.952;2022-07-29T00:34:04;2.07;;;0.97;;
13704;SDS011;6924;52.122;9.952;2022-07-29T00:36:51;1.50;;;0.80;;
13704;SDS011;6924;52.122;9.952;2022-07-29T00:39:16;0.97;;;0.90;;
13704;SDS011;6924;52.122;9.952;2022-07-29T00:41:44;1.37;;;0.70;;
13704;SDS011;6924;52.122;9.952;2022-07-29T00:44:10;4.30;;;0.73;;
13704;SDS011;6924;52.122;9.952;2022-07-29T00:46:37;2.40;;;0.70;;
13704;SDS011;6924;52.122;9.952;2022-07-29T00:49:03;1.13;;;0.70;;
13704;SDS011;6924;52.122;9.952;2022-07-29T00:51:32;3.17;;;0.90;;
13704;SDS011;6924;52.122;9.952;2022-07-29T00:54:00;1.00;;;0.80;;
13704;SDS011;6924;52.122;9.952;2022-07-29T00:56:27;3.10;;;0.93;;
13704;SDS011;6924;52.122;9.952;2022-07-29T00:58:57;1.53;;;0.80;;
13704;SDS011;6924;52.122;9.952;2022-07-29T01:01:24;1.77;;;0.60;;
13704;SDS011;6924;52.122;9.952;2022-07-29T01:03:51;4.40;;;0.90;;
13704;SDS011;6924;52.122;9.952;2022-07-29T01:06:18;0.97;;;0.60;;
13704;SDS011;6924;52.122;9.952;2022-07-29T01:08:45;2.17;;;0.90;;
13704;SDS011;6924;52.122;9.952;2022-07-29T01:11:14;1.40;;;0.90;;
13704;SDS011;6924;52.122;9.952;2022-07-29T01:13:41;0.70;;;0.70;;
13704;SDS011;6924;52.122;9.952;2022-07-29T01:16:11;2.13;;;0.80;;
13704;SDS011;6924;52.122;9.952;2022-07-29T01:18:44;3.47;;;1.10;;
13704;SDS011;6924;52.122;9.952;2022-07-29T01:21:18;2.17;;;1.00;;
13704;SDS011;6924;52.122;9.952;2022-07-29T01:23:59;6.90;;;0.93;;
13704;SDS011;6924;52.122;9.952;2022-07-29T01:26:41;2.53;;;1.00;;
13704;SDS011;6924;52.122;9.952;2022-07-29T01:29:13;1.47;;;0.70;;
13704;SDS011;6924;52.122;9.952;2022-07-29T01:31:48;1.00;;;0.90;;
13704;SDS011;6924;52.122;9.952;2022-07-29T01:34:20;1.97;;;0.80;;
13704;SDS011;6924;52.122;9.952;2022-07-29T01:36:50;2.50;;;1.10;;
13704;SDS011;6924;52.122;9.952;2022-07-29T01:39:23;2.23;;;1.43;;
13704;SDS011;6924;52.122;9.952;2022-07-29T01:41:56;1.13;;;0.70;;
13704;SDS011;6924;52.122;9.952;2022-07-29T01:44:31;1.67;;;0.90;;
13704;SDS011;6924;52.122;9.952;2022-07-29T01:47:00;1.13;;;0.90;;
13704;SDS011;6924;52.122;9.952;2022-07-29T01:49:33;1.60;;;1.03;;
13704;SDS011;6924;52.122;9.952;2022-07-29T01:52:03;1.83;;;0.67;;
13704;SDS011;6924;52.122;9.952;2022-07-29T01:54:34;1.73;;;0.90;;
13704;SDS011;6924;52.122;9.952;2022-07-29T01:57:08;1.47;;;0.70;;
13704;SDS011;6924;52.122;9.952;2022-07-29T01:59:38;4.70;;;0.97;;
13704;SDS011;6924;52.122;9.952;2022-07-29T02:02:07;1.23;;;0.80;;
13704;SDS011;6924;52.122;9.952;2022-07-29T02:04:36;1.33;;;0.70;;
13704;SDS011;6924;52.122;9.952;2022-07-29T02:07:06;2.90;;;0.70;;
13704;SDS011;6924;52.122;9.952;2022-07-29T02:09:35;1.73;;;0.93;;
13704;SDS011;6924;52.122;9.952;2022-07-29T02:12:03;1.63;;;0.70;;
13704;SDS011;6924;52.122;9.952;2022-07-29T02:14:34;1.50;;;1.00;;
13704;SDS011;6924;52.122;9.952;2022-07-29T02:17:05;1.77;;;1.10;;
13704;SDS011;6924;52.122;9.952;2022-07-29T02:19:32;2.60;;;0.90;;
13704;SDS011;6924;52.122;9.952;2022-07-29T02:22:00;3.70;;;0.77;;
13704;SDS011;6924;52.122;9.952;2022-07-29T02:24:27;2.20;;;1.00;;
13704;SDS011;6924;52.122;9.952;2022-07-29T02:26:56;1.80;;;0.70;;
13704;SDS011;6924;52.122;9.952;2022-07-29T02:29:26;3.67;;;0.93;;
13704;SDS011;6924;52.122;9.952;2022-07-29T02:31:54;5.30;;;0.90;;
13704;SDS011;6924;52.122;9.952;2022-07-29T02:34:24;1.73;;;1.03;;
13704;SDS011;6924;52.122;9.952;2022-07-29T02:36:51;1.97;;;0.70;;
13704;SDS011;6924;52.122;9.952;2022-07-29T02:39:20;2.13;;;0.90;;
13704;SDS011;6924;52.122;9.952;2022-07-29T02:41:49;2.47;;;0.90;;
13704;SDS011;6924;52.122;9.952;2022-07-29T02:44:18;0.93;;;0.83;;
13704;SDS011;6924;52.122;9.952;2022-07-29T02:46:47;3.13;;;0.97;;
13704;SDS011;6924;52.122;9.952;2022-07-29T02:49:18;1.67;;;0.70;;
13704;SDS011;6924;52.122;9.952;2022-07-29T02:51:54;2.87;;;0.80;;
13704;SDS011;6924;52.122;9.952;2022-07-29T02:54:26;3.10;;;0.70;;
13704;SDS011;6924;52.122;9.952;2022-07-29T02:56:58;15.70;;;1.67;;
13704;SDS011;6924;52.122;9.952;2022-07-29T02:59:27;0.90;;;0.80;;
13704;SDS011;6924;52.122;9.952;2022-07-29T03:01:57;3.43;;;0.90;;
13704;SDS011;6924;52.122;9.952;2022-07-29T03:04:25;1.33;;;0.70;;
13704;SDS011;6924;52.122;9.952;2022-07-29T03:06:56;1.77;;;1.00;;
13704;SDS011;6924;52.122;9.952;2022-07-29T03:09:25;1.57;;;0.70;;
13704;SDS011;6924;52.122;9.952;2022-07-29T03:11:53;1.60;;;0.90;;
13704;SDS011;6924;52.122;9.952;2022-07-29T03:14:21;8.10;;;0.90;;
13704;SDS011;6924;52.122;9.952;2022-07-29T03:16:49;1.93;;;1.10;;
13704;SDS011;6924;52.122;9.952;2022-07-29T03:19:17;1.77;;;0.70;;
13704;SDS011;6924;52.122;9.952;2022-07-29T03:21:45;3.33;;;0.80;;
13704;SDS011;6924;52.122;9.952;2022-07-29T03:24:24;0.63;;;0.50;;
13704;SDS011;6924;52.122;9.952;2022-07-29T03:26:52;2.07;;;0.87;;
13704;SDS011;6924;52.122;9.952;2022-07-29T03:29:18;1.37;;;0.87;;
13704;SDS011;6924;52.122;9.952;2022-07-29T03:31:45;4.70;;;1.17;;
13704;SDS011;6924;52.122;9.952;2022-07-29T03:34:11;1.27;;;0.70;;
13704;SDS011;6924;52.122;9.952;2022-07-29T03:36:38;1.00;;;0.77;;
13704;SDS011;6924;52.122;9.952;2022-07-29T03:39:04;1.43;;;0.83;;
13704;SDS011;6924;52.122;9.952;2022-07-29T03:41:35;2.17;;;1.00;;
13704;SDS011;6924;52.122;9.952;2022-07-29T03:44:02;2.33;;;0.80;;
13704;SDS011;6924;52.122;9.952;2022-07-29T03:46:31;1.10;;;0.60;;
13704;SDS011;6924;52.122;9.952;2022-07-29T03:49:01;2.80;;;1.00;;
13704;SDS011;6924;52.122;9.952;2022-07-29T03:51:30;1.50;;;0.70;;
13704;SDS011;6924;52.122;9.952;2022-07-29T03:53:56;2.17;;;1.03;;
13704;SDS011;6924;52.122;9.952;2022-07-29T03:56:24;1.27;;;1.00;;
13704;SDS011;6924;52.122;9.952;2022-07-29T03:58:52;3.20;;;1.00;;
13704;SDS011;6924;52.122;9.952;2022-07-29T04:01:19;1.67;;;1.00;;
13704;SDS011;6924;52.122;9.952;2022-07-29T04:03:47;2.53;;;1.03;;
13704;SDS011;6924;52.122;9.952;2022-07-29T04:06:13;1.30;;;0.90;;
13704;SDS011;6924;52.122;9.952;2022-07-29T04:08:40;2.20;;;0.80;;
13704;SDS011;6924;52.122;9.952;2022-07-29T04:11:06;3.70;;;1.27;;
13704;SDS011;6924;52.122;9.952;2022-07-29T04:13:33;1.40;;;0.97;;
13704;SDS011;6924;52.122;9.952;2022-07-29T04:16:00;1.33;;;0.80;;
13704;SDS011;6924;52.122;9.952;2022-07-29T04:18:27;2.50;;;0.97;;
13704;SDS011;6924;52.122;9.952;2022-07-29T04:20:53;3.13;;;0.90;;
13704;SDS011;6924;52.122;9.952;2022-07-29T04:23:20;1.83;;;1.00;;
13704;SDS011;6924;52.122;9.952;2022-07-29T04:25:46;3.60;;;1.10;;
13704;SDS011;6924;52.122;9.952;2022-07-29T04:28:13;2.17;;;1.07;;
13704;SDS011;6924;52.122;9.952;2022-07-29T04:30:39;1.67;;;1.00;;
13704;SDS011;6924;52.122;9.952;2022-07-29T04:33:07;3.37;;;0.90;;
13704;SDS011;6924;52.122;9.952;2022-07-29T04:35:34;2.00;;;0.97;;
13704;SDS011;6924;52.122;9.952;2022-07-29T04:38:02;1.30;;;0.93;;
13704;SDS011;6924;52.122;9.952;2022-07-29T04:40:29;2.13;;;1.10;;
13704;SDS011;6924;52.122;9.952;2022-07-29T04:42:55;1.97;;;0.70;;
13704;SDS011;6924;52.122;9.952;2022-07-29T04:45:22;1.63;;;1.00;;
13704;SDS011;6924;52.122;9.952;2022-07-29T04:47:49;2.10;;;1.07;;
13704;SDS011;6924;52.122;9.952;2022-07-29T04:50:17;1.63;;;1.00;;
13704;SDS011;6924;52.122;9.952;2022-07-29T04:52:43;3.57;;;0.90;;
13704;SDS011;6924;52.122;9.952;2022-07-29T04:55:09;2.07;;;0.80;;
13704;SDS011;6924;52.122;9.952;2022-07-29T04:57:36;3.90;;;0.73;;
13704;SDS011;6924;52.122;9.952;2022-07-29T05:00:03;2.20;;;1.40;;
13704;SDS011;6924;52.122;9.952;2022-07-29T05:02:30;1.90;;;1.27;;
13704;SDS011;6924;52.122;9.952;2022-07-29T05:04:57;3.73;;;1.67;;
13704;SDS011;6924;52.122;9.952;2022-07-29T05:07:24;3.80;;;0.90;;
13704;SDS011;6924;52.122;9.952;2022-07-29T05:09:51;3.07;;;1.10;;
13704;SDS011;6924;52.122;9.952;2022-07-29T05:12:18;1.20;;;0.90;;
13704;SDS011;6924;52.122;9.952;2022-07-29T05:14:44;0.87;;;0.87;;
13704;SDS011;6924;52.122;9.952;2022-07-29T05:17:10;1.23;;;0.70;;
13704;SDS011;6924;52.122;9.952;2022-07-29T05:19:37;6.97;;;2.53;;
13704;SDS011;6924;52.122;9.952;2022-07-29T05:22:03;2.27;;;0.87;;
13704;SDS011;6924;52.122;9.952;2022-07-29T05:24:31;2.17;;;0.70;;
13704;SDS011;6924;52.122;9.952;2022-07-29T05:26:58;2.90;;;1.20;;
13704;SDS011;6924;52.122;9.952;2022-07-29T05:29:24;2.93;;;1.10;;
13704;SDS011;6924;52.122;9.952;2022-07-29T05:31:51;1.97;;;1.00;;
13704;SDS011;6924;52.122;9.952;2022-07-29T05:34:18;1.73;;;1.13;;
13704;SDS011;6924;52.122;9.952;2022-07-29T05:36:44;1.10;;;0.80;;
13704;SDS011;6924;52.122;9.952;2022-07-29T05:39:11;3.17;;;0.90;;
13704;SDS011;6924;52.122;9.952;2022-07-29T05:41:39;1.63;;;1.00;;
13704;SDS011;6924;52.122;9.952;2022-07-29T05:44:06;2.90;;;0.77;;
13704;SDS011;6924;52.122;9.952;2022-07-29T05:46:32;1.30;;;1.00;;
13704;SDS011;6924;52.122;9.952;2022-07-29T05:48:59;1.27;;;0.77;;
13704;SDS011;6924;52.122;9.952;2022-07-29T05:51:25;1.33;;;1.17;;
13704;SDS011;6924;52.122;9.952;2022-07-29T05:53:52;3.13;;;0.80;;
13704;SDS011;6924;52.122;9.952;2022-07-29T05:56:18;2.03;;;1.20;;
13704;SDS011;6924;52.122;9.952;2022-07-29T05:58:46;2.20;;;1.00;;
13704;SDS011;6924;52.122;9.952;2022-07-29T06:01:12;1.30;;;0.90;;
13704;SDS011;6924;52.122;9.952;2022-07-29T06:03:39;6.33;;;0.97;;
13704;SDS011;6924;52.122;9.952;2022-07-29T06:06:06;1.80;;;0.93;;
13704;SDS011;6924;52.122;9.952;2022-07-29T06:08:33;1.90;;;0.90;;
13704;SDS011;6924;52.122;9.952;2022-07-29T06:11:01;2.47;;;0.90;;
13704;SDS011;6924;52.122;9.952;2022-07-29T06:13:28;1.43;;;1.00;;
13704;SDS011;6924;52.122;9.952;2022-07-29T06:15:56;2.63;;;1.20;;
13704;SDS011;6924;52.122;9.952;2022-07-29T06:18:22;3.73;;;1.07;;
13704;SDS011;6924;52.122;9.952;2022-07-29T06:20:49;1.13;;;0.90;;
13704;SDS011;6924;52.122;9.952;2022-07-29T06:23:16;3.87;;;1.17;;
13704;SDS011;6924;52.122;9.952;2022-07-29T06:25:42;1.53;;;0.73;;
13704;SDS011;6924;52.122;9.952;2022-07-29T06:28:09;1.53;;;0.80;;
13704;SDS011;6924;52.122;9.952;2022-07-29T06:30:36;1.97;;;0.90;;
13704;SDS011;6924;52.122;9.952;2022-07-29T06:33:04;2.07;;;0.80;;
13704;SDS011;6924;52.122;9.952;2022-07-29T06:35:30;1.77;;;0.80;;
13704;SDS011;6924;52.122;9.952;2022-07-29T06:38:00;3.40;;;1.07;;
13704;SDS011;6924;52.122;9.952;2022-07-29T06:40:26;3.57;;;1.00;;
13704;SDS011;6924;52.122;9.952;2022-07-29T06:43:10;1.40;;;1.10;;
13704;SDS011;6924;52.122;9.952;2022-07-29T06:45:37;3.97;;;1.57;;
13704;SDS011;6924;52.122;9.952;2022-07-29T06:48:07;1.20;;;0.90;;
13704;SDS011;6924;52.122;9.952;2022-07-29T06:50:33;2.07;;;1.20;;
13704;SDS011;6924;52.122;9.952;2022-07-29T06:53:00;1.50;;;1.00;;
13704;SDS011;6924;52.122;9.952;2022-07-29T06:55:26;1.37;;;0.80;;
13704;SDS011;6924;52.122;9.952;2022-07-29T06:57:52;2.37;;;0.97;;
13704;SDS011;6924;52.122;9.952;2022-07-29T07:00:19;3.13;;;0.90;;
13704;SDS011;6924;52.122;9.952;2022-07-29T07:02:45;2.17;;;0.83;;
13704;SDS011;6924;52.122;9.952;2022-07-29T07:05:14;2.67;;;0.90;;
13704;SDS011;6924;52.122;9.952;2022-07-29T07:07:40;1.37;;;0.77;;
13704;SDS011;6924;52.122;9.952;2022-07-29T07:10:07;2.40;;;1.10;;
13704;SDS011;6924;52.122;9.952;2022-07-29T07:12:34;3.10;;;1.47;;
13704;SDS011;6924;52.122;9.952;2022-07-29T07:15:00;2.50;;;0.93;;
13704;SDS011;6924;52.122;9.952;2022-07-29T07:17:26;1.87;;;0.77;;
13704;SDS011;6924;52.122;9.952;2022-07-29T07:19:53;3.17;;;0.90;;
13704;SDS011;6924;52.122;9.952;2022-07-29T07:22:21;2.10;;;1.00;;
13704;SDS011;6924;52.122;9.952;2022-07-29T07:24:47;2.57;;;1.00;;
13704;SDS011;6924;52.122;9.952;2022-07-29T07:27:14;1.83;;;0.93;;
13704;SDS011;6924;52.122;9.952;2022-07-29T07:29:40;0.87;;;0.80;;
13704;SDS011;6924;52.122;9.952;2022-07-29T07:32:06;1.43;;;0.90;;
13704;SDS011;6924;52.122;9.952;2022-07-29T07:34:33;3.33;;;1.03;;
13704;SDS011;6924;52.122;9.952;2022-07-29T07:37:00;2.40;;;0.80;;
13704;SDS011;6924;52.122;9.952;2022-07-29T07:39:27;2.07;;;0.90;;
13704;SDS011;6924;52.122;9.952;2022-07-29T07:41:54;1.67;;;1.10;;
13704;SDS011;6924;52.122;9.952;2022-07-29T07:44:20;1.27;;;0.90;;
13704;SDS011;6924;52.122;9.952;2022-07-29T07:46:47;2.20;;;0.70;;
13704;SDS011;6924;52.122;9.952;2022-07-29T07:49:13;1.73;;;1.03;;
13704;SDS011;6924;52.122;9.952;2022-07-29T07:51:40;3.87;;;1.00;;
13704;SDS011;6924;52.122;9.952;2022-07-29T07:54:06;2.37;;;1.00;;
13704;SDS011;6924;52.122;9.952;2022-07-29T07:56:35;4.57;;;0.87;;
13704;SDS011;6924;52.122;9.952;2022-07-29T07:59:01;1.93;;;1.10;;
13704;SDS011;6924;52.122;9.952;2022-07-29T08:01:27;3.07;;;1.10;;
13704;SDS011;6924;52.122;9.952;2022-07-29T08:03:54;2.03;;;1.13;;
13704;SDS011;6924;52.122;9.952;2022-07-29T08:06:20;2.97;;;1.37;;
13704;SDS011;6924;52.122;9.952;2022-07-29T08:08:48;1.70;;;1.07;;
13704;SDS011;6924;52.122;9.952;2022-07-29T08:11:15;2.03;;;0.90;;
13704;SDS011;6924;52.122;9.952;2022-07-29T08:13:43;3.23;;;1.00;;
13704;SDS011;6924;52.122;9.952;2022-07-29T08:16:09;1.60;;;0.97;;
13704;SDS011;6924;52.122;9.952;2022-07-29T08:18:40;1.87;;;0.80;;
13704;SDS011;6924;52.122;9.952;2022-07-29T08:21:08;2.10;;;1.10;;
13704;SDS011;6924;52.122;9.952;2022-07-29T08:23:34;0.90;;;0.83;;
13704;SDS011;6924;52.122;9.952;2022-07-29T08:26:03;5.23;;;1.43;;
13704;SDS011;6924;52.122;9.952;2022-07-29T08:28:30;4.53;;;1.47;;
13704;SDS011;6924;52.122;9.952;2022-07-29T08:30:58;2.47;;;0.90;;
13704;SDS011;6924;52.122;9.952;2022-07-29T08:33:24;1.20;;;1.00;;
13704;SDS011;6924;52.122;9.952;2022-07-29T08:35:51;2.27;;;1.00;;
13704;SDS011;6924;52.122;9.952;2022-07-29T08:38:17;2.60;;;0.97;;
13704;SDS011;6924;52.122;9.952;2022-07-29T08:40:44;1.73;;;1.10;;
13704;SDS011;6924;52.122;9.952;2022-07-29T08:43:11;2.33;;;1.30;;
13704;SDS011;6924;52.122;9.952;2022-07-29T08:45:41;1.77;;;1.10;;
13704;SDS011;6924;52.122;9.952;2022-07-29T08:48:10;1.73;;;0.80;;
13704;SDS011;6924;52.122;9.952;2022-07-29T08:50:37;2.17;;;1.30;;
13704;SDS011;6924;52.122;9.952;2022-07-29T08:53:05;2.27;;;1.13;;
13704;SDS011;6924;52.122;9.952;2022-07-29T08:55:34;1.53;;;1.10;;
13704;SDS011;6924;52.122;9.952;2022-07-29T08:58:00;3.10;;;1.20;;
13704;SDS011;6924;52.122;9.952;2022-07-29T09:00:27;2.57;;;0.90;;
13704;SDS011;6924;52.122;9.952;2022-07-29T09:02:56;2.67;;;1.20;;
13704;SDS011;6924;52.122;9.952;2022-07-29T09:05:25;1.37;;;0.70;;
13704;SDS011;6924;52.122;9.952;2022-07-29T09:07:52;2.43;;;1.33;;
13704;SDS011;6924;52.122;9.952;2022-07-29T09:10:19;1.73;;;1.00;;
13704;SDS011;6924;52.122;9.952;2022-07-29T09:12:45;3.27;;;0.93;;
13704;SDS011;6924;52.122;9.952;2022-07-29T09:15:13;3.60;;;1.40;;
13704;SDS011;6924;52.122;9.952;2022-07-29T09:17:40;1.67;;;1.07;;
13704;SDS011;6924;52.122;9.952;2022-07-29T09:20:08;2.00;;;1.30;;
13704;SDS011;6924;52.122;9.952;2022-07-29T09:22:37;1.53;;;1.17;;
13704;SDS011;6924;52.122;9.952;2022-07-29T09:25:05;2.40;;;0.93;;
13704;SDS011;6924;52.122;9.952;2022-07-29T09:27:32;2.43;;;1.37;;
13704;SDS011;6924;52.122;9.952;2022-07-29T09:29:59;2.87;;;1.30;;
13704;SDS011;6924;52.122;9.952;2022-07-29T09:32:27;1.03;;;0.90;;
13704;SDS011;6924;52.122;9.952;2022-07-29T09:37:47;4.13;;;1.30;;
13704;SDS011;6924;52.122;9.952;2022-07-29T09:40:16;3.90;;;1.50;;
13704;SDS011;6924;52.122;9.952;2022-07-29T09:42:43;3.27;;;1.33;;
13704;SDS011;6924;52.122;9.952;2022-07-29T09:45:10;2.50;;;1.53;;
13704;SDS011;6924;52.122;9.952;2022-07-29T09:47:41;4.13;;;1.27;;
13704;SDS011;6924;52.122;9.952;2022-07-29T09:50:10;2.27;;;1.30;;
13704;SDS011;6924;52.122;9.952;2022-07-29T09:52:44;2.77;;;1.43;;
13704;SDS011;6924;52.122;9.952;2022-07-29T09:55:14;2.33;;;1.40;;
13704;SDS011;6924;52.122;9.952;2022-07-29T09:57:41;3.63;;;1.57;;
13704;SDS011;6924;52.122;9.952;2022-07-29T10:00:08;1.80;;;1.30;;
13704;SDS011;6924;52.122;9.952;2022-07-29T10:02:38;2.47;;;1.40;;
13704;SDS011;6924;52.122;9.952;2022-07-29T10:05:06;2.80;;;1.67;;
13704;SDS011;6924;52.122;9.952;2022-07-29T10:07:44;2.47;;;1.70;;
13704;SDS011;6924;52.122;9.952;2022-07-29T10:10:17;5.20;;;1.83;;
13704;SDS011;6924;52.122;9.952;2022-07-29T10:12:48;1.90;;;1.17;;
13704;SDS011;6924;52.122;9.952;2022-07-29T10:15:16;4.67;;;1.50;;
13704;SDS011;6924;52.122;9.952;2022-07-29T10:17:42;3.07;;;1.90;;
13704;SDS011;6924;52.122;9.952;2022-07-29T10:20:10;3.83;;;1.60;;
13704;SDS011;6924;52.122;9.952;2022-07-29T10:22:37;4.13;;;1.63;;
13704;SDS011;6924;52.122;9.952;2022-07-29T10:25:04;4.90;;;1.80;;
13704;SDS011;6924;52.122;9.952;2022-07-29T10:27:32;6.60;;;1.93;;
13704;SDS011;6924;52.122;9.952;2022-07-29T10:29:58;4.53;;;1.60;;
13704;SDS011;6924;52.122;9.952;2022-07-29T10:32:29;2.67;;;1.60;;
13704;SDS011;6924;52.122;9.952;2022-07-29T10:35:15;1.50;;;1.40;;
13704;SDS011;6924;52.122;9.952;2022-07-29T10:37:52;3.63;;;1.83;;
13704;SDS011;6924;52.122;9.952;2022-07-29T10:40:38;4.33;;;1.80;;
13704;SDS011;6924;52.122;9.952;2022-07-29T10:43:36;3.87;;;1.70;;
13704;SDS011;6924;52.122;9.952;2022-07-29T10:46:07;2.03;;;1.90;;
13704;SDS011;6924;52.122;9.952;2022-07-29T10:48:34;1.80;;;1.40;;
13704;SDS011;6924;52.122;9.952;2022-07-29T10:51:01;6.17;;;2.93;;
13704;SDS011;6924;52.122;9.952;2022-07-29T10:53:48;2.23;;;1.83;;
13704;SDS011;6924;52.122;9.952;2022-07-29T10:56:25;2.67;;;1.40;;
13704;SDS011;6924;52.122;9.952;2022-07-29T11:01:53;2.90;;;2.13;;
13704;SDS011;6924;52.122;9.952;2022-07-29T11:07:26;1.27;;;1.17;;
13704;SDS011;6924;52.122;9.952;2022-07-29T11:10:19;1.50;;;1.40;;
13704;SDS011;6924;52.122;9.952;2022-07-29T11:12:47;2.40;;;2.03;;
13704;SDS011;6924;52.122;9.952;2022-07-29T11:15:15;1.33;;;1.10;;
13704;SDS011;6924;52.122;9.952;2022-07-29T11:20:35;4.43;;;1.53;;
13704;SDS011;6924;52.122;9.952;2022-07-29T11:23:17;3.20;;;1.70;;
13704;SDS011;6924;52.122;9.952;2022-07-29T11:25:44;5.23;;;1.70;;
13704;SDS011;6924;52.122;9.952;2022-07-29T11:28:13;4.27;;;1.40;;
13704;SDS011;6924;52.122;9.952;2022-07-29T11:30:50;4.97;;;2.27;;
13704;SDS011;6924;52.122;9.952;2022-07-29T11:33:27;4.70;;;1.67;;
13704;SDS011;6924;52.122;9.952;2022-07-29T11:36:07;1.90;;;1.23;;
13704;SDS011;6924;52.122;9.952;2022-07-29T11:38:35;2.93;;;1.70;;
13704;SDS011;6924;52.122;9.952;2022-07-29T11:43:52;2.93;;;1.70;;
13704;SDS011;6924;52.122;9.952;2022-07-29T11:49:14;2.23;;;1.77;;
13704;SDS011;6924;52.122;9.952;2022-07-29T11:51:49;4.27;;;1.57;;
13704;SDS011;6924;52.122;9.952;2022-07-29T11:54:16;1.83;;;1.67;;
13704;SDS011;6924;52.122;9.952;2022-07-29T11:56:50;2.53;;;1.50;;
13704;SDS011;6924;52.122;9.952;2022-07-29T11:59:18;4.50;;;2.50;;
13704;SDS011;6924;52.122;9.952;2022-07-29T12:01:53;8.90;;;2.27;;
13704;SDS011;6924;52.122;9.952;2022-07-29T12:04:20;4.00;;;2.17;;
13704;SDS011;6924;52.122;9.952;2022-07-29T12:06:48;1.73;;;1.37;;
13704;SDS011;6924;52.122;9.952;2022-07-29T12:09:15;6.67;;;2.03;;
13704;SDS011;6924;52.122;9.952;2022-07-29T12:11:42;5.40;;;1.93;;
13704;SDS011;6924;52.122;9.952;2022-07-29T12:14:09;4.63;;;1.53;;
13704;SDS011;6924;52.122;9.952;2022-07-29T12:16:50;3.70;;;1.83;;
13704;SDS011;6924;52.122;9.952;2022-07-29T12:19:18;2.47;;;1.50;;
13704;SDS011;6924;52.122;9.952;2022-07-29T12:21:45;3.17;;;2.07;;
13704;SDS011;6924;52.122;9.952;2022-07-29T12:24:11;3.93;;;1.57;;
13704;SDS011;6924;52.122;9.952;2022-07-29T12:26:48;1.40;;;1.27;;
13704;SDS011;6924;52.122;9.952;2022-07-29T12:29:15;6.17;;;1.83;;
13704;SDS011;6924;52.122;9.952;2022-07-29T12:31:42;2.10;;;1.80;;
13704;SDS011;6924;52.122;9.952;2022-07-29T12:34:09;4.20;;;1.53;;
13704;SDS011;6924;52.122;9.952;2022-07-29T12:36:38;2.03;;;1.73;;
13704;SDS011;6924;52.122;9.952;2022-07-29T12:39:05;3.87;;;1.73;;
13704;SDS011;6924;52.122;9.952;2022-07-29T12:41:32;2.73;;;2.13;;
13704;SDS011;6924;52.122;9.952;2022-07-29T12:43:58;4.13;;;1.80;;
13704;SDS011;6924;52.122;9.952;2022-07-29T12:46:24;4.13;;;1.57;;
13704;SDS011;6924;52.122;9.952;2022-07-29T12:48:53;1.63;;;1.50;;
13704;SDS011;6924;52.122;9.952;2022-07-29T12:51:27;5.33;;;1.93;;
13704;SDS011;6924;52.122;9.952;2022-07-29T12:54:05;5.60;;;2.00;;
13704;SDS011;6924;52.122;9.952;2022-07-29T12:56:33;5.80;;;1.97;;
13704;SDS011;6924;52.122;9.952;2022-07-29T12:58:59;2.60;;;1.73;;
13704;SDS011;6924;52.122;9.952;2022-07-29T13:01:36;3.07;;;1.73;;
13704;SDS011;6924;52.122;9.952;2022-07-29T13:04:03;2.53;;;1.60;;
13704;SDS011;6924;52.122;9.952;2022-07-29T13:06:30;2.00;;;1.90;;
13704;SDS011;6924;52.122;9.952;2022-07-29T13:08:58;5.73;;;1.93;;
13704;SDS011;6924;52.122;9.952;2022-07-29T13:11:31;2.70;;;1.93;;
13704;SDS011;6924;52.122;9.952;2022-07-29T13:13:58;6.27;;;3.30;;
13704;SDS011;6924;52.122;9.952;2022-07-29T13:16:25;5.30;;;2.20;;
13704;SDS011;6924;52.122;9.952;2022-07-29T13:19:03;3.60;;;1.97;;
13704;SDS011;6924;52.122;9.952;2022-07-29T13:21:30;2.93;;;1.80;;
13704;SDS011;6924;52.122;9.952;2022-07-29T13:23:57;2.73;;;1.60;;
13704;SDS011;6924;52.122;9.952;2022-07-29T13:26:23;2.90;;;2.47;;
13704;SDS011;6924;52.122;9.952;2022-07-29T13:28:51;3.37;;;2.30;;
13704;SDS011;6924;52.122;9.952;2022-07-29T13:31:17;2.77;;;2.57;;
13704;SDS011;6924;52.122;9.952;2022-07-29T13:33:44;4.33;;;2.80;;
13704;SDS011;6924;52.122;9.952;2022-07-29T13:36:10;3.13;;;2.20;;
13704;SDS011;6924;52.122;9.952;2022-07-29T13:38:37;4.87;;;2.60;;
13704;SDS011;6924;52.122;9.952;2022-07-29T13:41:04;3.37;;;2.60;;
13704;SDS011;6924;52.122;9.952;2022-07-29T13:43:30;3.97;;;2.60;;
13704;SDS011;6924;52.122;9.952;2022-07-29T13:45:58;2.70;;;2.30;;
13704;SDS011;6924;52.122;9.952;2022-07-29T13:48:24;3.57;;;2.37;;
13704;SDS011;6924;52.122;9.952;2022-07-29T13:50:51;2.97;;;2.40;;
13704;SDS011;6924;52.122;9.952;2022-07-29T13:53:18;3.93;;;2.30;;
13704;SDS011;6924;52.122;9.952;2022-07-29T13:55:45;3.43;;;2.30;;
13704;SDS011;6924;52.122;9.952;2022-07-29T13:58:11;2.57;;;2.37;;
13704;SDS011;6924;52.122;9.952;2022-07-29T14:00:38;2.60;;;2.37;;
13704;SDS011;6924;52.122;9.952;2022-07-29T14:03:05;6.40;;;2.53;;
13704;SDS011;6924;52.122;9.952;2022-07-29T14:05:32;3.53;;;2.30;;
13704;SDS011;6924;52.122;9.952;2022-07-29T14:07:59;3.13;;;2.60;;
13704;SDS011;6924;52.122;9.952;2022-07-29T14:10:25;2.70;;;2.50;;
13704;SDS011;6924;52.122;9.952;2022-07-29T14:12:52;2.30;;;2.10;;
13704;SDS011;6924;52.122;9.952;2022-07-29T14:15:19;3.30;;;2.50;;
13704;SDS011;6924;52.122;9.952;2022-07-29T14:17:45;2.60;;;2.40;;
13704;SDS011;6924;52.122;9.952;2022-07-29T14:20:13;2.23;;;1.83;;
13704;SDS011;6924;52.122;9.952;2022-07-29T14:22:40;3.00;;;2.40;;
13704;SDS011;6924;52.122;9.952;2022-07-29T14:25:07;4.27;;;2.07;;
13704;SDS011;6924;52.122;9.952;2022-07-29T14:27:34;3.70;;;2.30;;
13704;SDS011;6924;52.122;9.952;2022-07-29T14:30:01;2.40;;;1.90;;
13704;SDS011;6924;52.122;9.952;2022-07-29T14:32:28;2.37;;;2.17;;
13704;SDS011;6924;52.122;9.952;2022-07-29T14:34:54;3.63;;;2.20;;
13704;SDS011;6924;52.122;9.952;2022-07-29T14:37:22;2.60;;;2.33;;
13704;SDS011;6924;52.122;9.952;2022-07-29T14:39:48;3.27;;;2.10;;
13704;SDS011;6924;52.122;9.952;2022-07-29T14:42:15;2.20;;;2.00;;
13704;SDS011;6924;52.122;9.952;2022-07-29T14:44:41;2.70;;;2.30;;
13704;SDS011;6924;52.122;9.952;2022-07-29T14:47:08;12.43;;;2.30;;
13704;SDS011;6924;52.122;9.952;2022-07-29T14:49:35;1.93;;;1.80;;
13704;SDS011;6924;52.122;9.952;2022-07-29T14:52:01;2.77;;;2.47;;
13704;SDS011;6924;52.122;9.952;2022-07-29T14:54:30;3.23;;;2.47;;
13704;SDS011;6924;52.122;9.952;2022-07-29T14:56:57;2.50;;;1.77;;
13704;SDS011;6924;52.122;9.952;2022-07-29T14:59:24;4.23;;;2.40;;
13704;SDS011;6924;52.122;9.952;2022-07-29T15:01:51;2.90;;;2.10;;
13704;SDS011;6924;52.122;9.952;2022-07-29T15:04:18;3.00;;;1.87;;
13704;SDS011;6924;52.122;9.952;2022-07-29T15:06:45;4.30;;;2.27;;
13704;SDS011;6924;52.122;9.952;2022-07-29T15:09:11;2.30;;;1.90;;
13704;SDS011;6924;52.122;9.952;2022-07-29T15:11:39;2.50;;;2.10;;
13704;SDS011;6924;52.122;9.952;2022-07-29T15:14:06;3.80;;;2.20;;
13704;SDS011;6924;52.122;9.952;2022-07-29T15:16:32;2.37;;;1.73;;
13704;SDS011;6924;52.122;9.952;2022-07-29T15:19:01;3.30;;;2.20;;
13704;SDS011;6924;52.122;9.952;2022-07-29T15:21:27;2.17;;;1.97;;
13704;SDS011;6924;52.122;9.952;2022-07-29T15:23:53;3.37;;;2.17;;
13704;SDS011;6924;52.122;9.952;2022-07-29T15:26:20;3.03;;;2.27;;